Map

Track Data

SID SEASON NUMBER BASIN SUBBASIN NAME ISO_TIME NATURE LAT LON WMO_WIND WMO_PRES WMO_AGENCY TRACK_TYPE DIST2LAND LANDFALL IFLAG USA_AGENCY USA_ATCF_ID USA_LAT USA_LON USA_RECORD USA_STATUS USA_WIND USA_PRES USA_SSHS USA_R34_NE USA_R34_SE USA_R34_SW USA_R34_NW USA_R50_NE USA_R50_SE USA_R50_SW USA_R50_NW USA_R64_NE USA_R64_SE USA_R64_SW USA_R64_NW USA_POCI USA_ROCI USA_RMW USA_EYE TOKYO_LAT TOKYO_LON TOKYO_GRADE TOKYO_WIND TOKYO_PRES TOKYO_R50_DIR TOKYO_R50_LONG TOKYO_R50_SHORT TOKYO_R30_DIR TOKYO_R30_LONG TOKYO_R30_SHORT TOKYO_LAND CMA_LAT CMA_LON CMA_CAT CMA_WIND CMA_PRES HKO_LAT HKO_LON HKO_CAT HKO_WIND HKO_PRES NEWDELHI_LAT NEWDELHI_LON NEWDELHI_GRADE NEWDELHI_WIND NEWDELHI_PRES NEWDELHI_CI NEWDELHI_DP NEWDELHI_POCI REUNION_LAT REUNION_LON REUNION_TYPE REUNION_WIND REUNION_PRES REUNION_TNUM REUNION_CI REUNION_RMW REUNION_R34_NE REUNION_R34_SE REUNION_R34_SW REUNION_R34_NW REUNION_R50_NE REUNION_R50_SE REUNION_R50_SW REUNION_R50_NW REUNION_R64_NE REUNION_R64_SE REUNION_R64_SW REUNION_R64_NW BOM_LAT BOM_LON BOM_TYPE BOM_WIND BOM_PRES BOM_TNUM BOM_CI BOM_RMW BOM_R34_NE BOM_R34_SE BOM_R34_SW BOM_R34_NW BOM_R50_NE BOM_R50_SE BOM_R50_SW BOM_R50_NW BOM_R64_NE BOM_R64_SE BOM_R64_SW BOM_R64_NW BOM_ROCI BOM_POCI BOM_EYE BOM_POS_METHOD BOM_PRES_METHOD NADI_LAT NADI_LON NADI_CAT NADI_WIND NADI_PRES WELLINGTON_LAT WELLINGTON_LON WELLINGTON_WIND WELLINGTON_PRES DS824_LAT DS824_LON DS824_STAGE DS824_WIND DS824_PRES TD9636_LAT TD9636_LON TD9636_STAGE TD9636_WIND TD9636_PRES TD9635_LAT TD9635_LON TD9635_WIND TD9635_PRES TD9635_ROCI NEUMANN_LAT NEUMANN_LON NEUMANN_CLASS NEUMANN_WIND NEUMANN_PRES MLC_LAT MLC_LON MLC_CLASS MLC_WIND MLC_PRES USA_GUST BOM_GUST BOM_GUST_PER REUNION_GUST REUNION_GUST_PER USA_SEAHGT USA_SEARAD_NE USA_SEARAD_SE USA_SEARAD_SW USA_SEARAD_NW STORM_SPEED STORM_DIR
1986257N14230 1986 93 EP MM LESTER 1986-09-13 18:00:00 TS 14.0000 -129.900 30 hurdat_epa main 2173 2173 O_________O___ hurdat_epa EP121986 14.0000 -129.900 TD 30 -1 14.0000 -129.900 1 30 10 270
1986257N14230 1986 93 EP MM LESTER 1986-09-13 21:00:00 TS 14.0030 -130.410 main 2210 2210 P_________P___ EP121986 14.0028 -130.412 TD 32 -1 14.0037 -130.403 1 32 10 270
1986257N14230 1986 93 EP MM LESTER 1986-09-14 00:00:00 TS 14.0000 -130.900 35 hurdat_epa main 2248 2248 O_________O___ hurdat_epa EP121986 14.0000 -130.900 TS 35 0 14.0000 -130.900 2 35 9 269
1986257N14230 1986 93 EP MM LESTER 1986-09-14 03:00:00 TS 13.9912 -131.359 main 2286 2286 P_________P___ EP121986 13.9923 -131.350 TS 35 0 13.9877 -131.385 2 35 9 270
1986257N14230 1986 93 EP MM LESTER 1986-09-14 06:00:00 TS 13.9962 -131.815 35 hurdat_epa main 2317 2317 O_________P___ hurdat_epa EP121986 14.0000 -131.800 TS 35 0 13.9849 -131.861 2 35 9 272
1986257N14230 1986 93 EP MM LESTER 1986-09-14 09:00:00 TS 14.0243 -132.308 main 2356 2356 P_________P___ EP121986 14.0275 -132.300 TS 35 0 14.0146 -132.331 2 35 10 276
1986257N14230 1986 93 EP MM LESTER 1986-09-14 12:00:00 TS 14.1000 -132.800 35 hurdat_epa main 2388 2372 O_________O___ hurdat_epa EP121986 14.1000 -132.800 TS 35 0 14.1000 -132.800 2 35 9 282
1986257N14230 1986 93 EP MM LESTER 1986-09-14 15:00:00 TS 14.2251 -133.259 main 2362 2314 P_________P___ EP121986 14.2123 -133.250 TS 35 0 14.2633 -133.287 2 36 9 290
1986257N14230 1986 93 EP MM LESTER 1986-09-14 18:00:00 TS 14.4206 -133.718 35 hurdat_epa main 2314 2252 O_________P___ hurdat_epa EP121986 14.4000 -133.700 TS 35 0 14.4824 -133.772 2 37 10 297
1986257N14230 1986 93 EP MM LESTER 1986-09-14 21:00:00 TS 14.7032 -134.211 main 2252 2191 P_________P___ EP121986 14.6925 -134.200 TS 37 0 14.7352 -134.246 2 38 11 301
1986257N14230 1986 93 EP MM LESTER 1986-09-15 00:00:00 TS 15.0000 -134.700 40 hurdat_epa main 2191 2144 O_________O___ hurdat_epa EP121986 15.0000 -134.700 TS 40 0 15.0000 -134.700 2 40 11 299
1986257N14230 1986 93 EP MM LESTER 1986-09-15 03:00:00 TS 15.2106 -135.162 main 2134 2086 P_________P___ EP121986 15.1999 -135.173 TS 40 0 15.2425 -135.130 2 41 10 296
1986257N14230 1986 93 EP MM LESTER 1986-09-15 06:00:00 TS 15.4230 -135.584 40 hurdat_epa main 2086 2046 O_________P___ hurdat_epa EP121986 15.4000 -135.600 TS 40 0 15.4921 -135.538 2 42 9 303
1986257N14230 1986 93 EP MM LESTER 1986-09-15 09:00:00 TS 15.7057 -135.955 main 2036 1997 P_________P___ EP121986 15.6924 -135.965 TS 42 0 15.7457 -135.927 2 43 9 310
1986257N14230 1986 93 EP MM LESTER 1986-09-15 12:00:00 TS 16.0000 -136.300 45 hurdat_epa main 1997 1960 O_________O___ hurdat_epa EP121986 16.0000 -136.300 TS 45 0 16.0000 -136.300 2 45 9 309
1986257N14230 1986 93 EP MM LESTER 1986-09-15 15:00:00 TS 16.2555 -136.653 main 1947 1911 P_________P___ EP121986 16.2574 -136.650 TS 45 0 16.2497 -136.661 2 43 8 307
1986257N14230 1986 93 EP MM LESTER 1986-09-15 18:00:00 TS 16.4999 -137.002 45 hurdat_epa main 1911 1875 O_________P___ hurdat_epa EP121986 16.5000 -137.000 TS 45 0 16.4995 -137.008 2 42 8 306
1986257N14230 1986 93 EP MM LESTER 1986-09-15 21:00:00 TS 16.7442 -137.350 main 1864 1826 P_________P___ EP121986 16.7424 -137.350 TS 42 0 16.7497 -137.351 2 41 8 307
1986257N14230 1986 93 EP MM LESTER 1986-09-16 00:00:00 TS 17.0000 -137.700 40 hurdat_epa main 1826 1788 O_________O___ hurdat_epa EP121986 17.0000 -137.700 TS 40 0 17.0000 -137.700 2 40 9 310
1986257N14230 1986 93 EP MM LESTER 1986-09-16 03:00:00 TS 17.2960 -138.048 main 1788 1741 P_________P___ EP121986 17.3074 -138.043 TS 37 0 17.2620 -138.064 2 38 9 311
1986257N14230 1986 93 EP MM LESTER 1986-09-16 06:00:00 TS 17.5806 -138.409 35 hurdat_epa main 1741 1695 O_________P___ hurdat_epa EP121986 17.6000 -138.400 TS 35 0 17.5222 -138.435 2 37 9 305
1986257N14230 1986 93 EP MM LESTER 1986-09-16 09:00:00 TS 17.8041 -138.798 main 1695 1650 P_________P___ EP121986 17.8150 -138.793 TS 35 0 17.7713 -138.814 2 36 9 299
1986257N14230 1986 93 EP MM LESTER 1986-09-16 12:00:00 TS 18.0000 -139.200 35 hurdat_epa main 1650 1605 O_________O___ hurdat_epa EP121986 18.0000 -139.200 TS 35 0 18.0000 -139.200 2 35 9 298
1986257N14230 1986 93 EP MM LESTER 1986-09-16 15:00:00 TS 18.2060 -139.598 main 1605 1560 P_________P___ EP121986 18.2074 -139.600 TS 32 -1 18.2016 -139.593 2 33 9 297
1986257N14230 1986 93 EP MM LESTER 1986-09-16 18:00:00 TS 18.3879 -139.998 30 hurdat_epa main 1560 1517 O_________P___ hurdat_epa EP121986 18.4000 -140.000 TD 30 -1 18.3807 -139.992 2 32 8 294
1986257N14230 1986 93 EP CP LESTER 1986-09-16 21:00:00 TS 18.5451 -140.399 main 1517 1473 P_________P___ EP121986 18.5602 -140.400 TD 30 -1 18.5444 -140.395 2 31 8 292
1986257N14230 1986 93 EP CP LESTER 1986-09-17 00:00:00 TS 18.7000 -140.800 30 hurdat_epa main 1473 O_________O___ hurdat_epa EP121986 18.7000 -140.800 TD 30 -1 18.7000 -140.800 1 30 8 292

About IBTrACS Database

This database is a web-friendly format of International Best Track Archive for Climate Stewardship (IBTrACS), a global best track data archive curated by NOAA dating back to 1842.

Updated: 2021-10-21